Terminal Aerodrome Forecast
Issued by NWS Charleston, WV

Current Version | Previous Version | Graphics & Text | Print | Product List | Glossary On
Versions: 1 2 3 4 5 6 7 8 9 10 11 12 13 14 15 16 17
000
FTUS41 KRLX 172300
TAFPKB
TAF
KPKB 172325Z 1800/1824 VRB03KT P6SM SKC
     FM181500 20004KT P6SM SCT060
     FM182100 26008KT P6SM SCT050
     FM182200 27007KT P6SM BKN050=

USA.gov is the U.S. government's official web portal to all federal, state and local government web resources and services.